Time;durP1;ratioP1;P1;durP2;ratioP2;P2;SDS_P1;SDS_P2;PMS_P1;PMS_P2;Temp;Humidity;BMP_temperature;BMP_pressure;BME280_temperature;BME280_humidity;BME280_pressure;Samples;Min_cycle;Max_cycle;Signal;HPM_P1;HPM_P2
2021/07/10 00:01:48;;;;;;;0.52;0.52;;;;;;;20.39;59.76;102076.53;5004127;28;20034;-82
2021/07/10 00:04:14;;;;;;;0.10;0.10;;;;;;;20.39;59.81;102073.84;4992544;28;20135;-82
2021/07/10 00:06:41;;;;;;;0.20;0.20;;;;;;;20.36;59.55;102075.72;5004797;28;20041;-91
2021/07/10 00:09:07;;;;;;;1.17;1.17;;;;;;;20.36;59.18;102066.75;5013937;28;20051;-91
2021/07/10 00:11:34;;;;;;;1.13;0.73;;;;;;;20.33;59.60;102064.22;5013071;28;20038;-90
2021/07/10 00:14:00;;;;;;;0.00;0.00;;;;;;;20.35;58.92;102052.44;5009915;28;20136;-91
2021/07/10 00:16:27;;;;;;;0.10;0.10;;;;;;;20.33;59.33;102051.63;5008083;28;20045;-92
2021/07/10 00:18:54;;;;;;;0.25;0.25;;;;;;;20.29;59.51;102047.31;4997189;28;20045;-90
2021/07/10 00:21:25;;;;;;;0.30;0.30;;;;;;;20.31;58.85;102045.44;4995312;28;20034;-92
2021/07/10 00:23:53;;;;;;;0.10;0.10;;;;;;;20.26;59.43;102047.47;4994709;28;20027;-91
2021/07/10 00:26:19;;;;;;;0.00;0.00;;;;;;;20.20;59.43;102047.72;5010734;28;20026;-90
2021/07/10 00:28:45;;;;;;;0.00;0.00;;;;;;;20.18;59.19;102050.44;5022764;28;20485;-89
2021/07/10 00:31:12;;;;;;;0.22;0.22;;;;;;;20.12;59.59;102056.06;5020597;28;20069;-90
2021/07/10 00:33:39;;;;;;;0.30;0.30;;;;;;;20.11;59.84;102053.47;5018834;28;20501;-91
2021/07/10 00:36:05;;;;;;;0.10;0.10;;;;;;;20.05;60.35;102043.84;5017876;28;20074;-89
2021/07/10 00:38:31;;;;;;;0.60;0.47;;;;;;;19.98;61.08;102039.63;5020584;28;20536;-92
2021/07/10 00:40:58;;;;;;;1.85;1.27;;;;;;;19.96;60.37;102037.03;5005424;28;20065;-88
2021/07/10 00:43:26;;;;;;;0.90;0.90;;;;;;;19.95;60.45;102037.06;5006017;28;20080;-89
2021/07/10 00:45:53;;;;;;;1.92;1.02;;;;;;;19.86;60.45;102039.19;5005848;28;20035;-92
2021/07/10 00:48:22;;;;;;;0.93;0.85;;;;;;;19.84;60.43;102040.22;5000857;28;20492;-88
2021/07/10 00:50:49;;;;;;;0.20;0.20;;;;;;;19.79;60.95;102042.13;5006918;28;20031;-93
2021/07/10 00:53:16;;;;;;;0.10;0.10;;;;;;;19.75;60.71;102035.16;5010511;28;20038;-92
2021/07/10 00:55:43;;;;;;;0.25;0.25;;;;;;;19.75;60.76;102035.16;5093633;23;20040;-85
2021/07/10 00:58:11;;;;;;;0.73;0.73;;;;;;;19.76;60.67;102031.53;5093549;28;20046;-85
2021/07/10 01:00:39;;;;;;;0.20;0.20;;;;;;;19.76;60.62;102032.38;5093813;28;20114;-85
2021/07/10 01:03:06;;;;;;;0.30;0.30;;;;;;;19.80;60.52;102038.53;5093790;28;20406;-85
2021/07/10 01:05:35;;;;;;;0.40;0.40;;;;;;;19.84;60.30;102029.44;5093720;28;20119;-84
2021/07/10 01:08:02;;;;;;;0.47;0.47;;;;;;;19.88;60.67;102028.38;5092553;28;20574;-83
2021/07/10 01:10:28;;;;;;;0.00;0.00;;;;;;;19.91;60.68;102028.25;5093510;28;20533;-84
2021/07/10 01:12:56;;;;;;;1.15;1.05;;;;;;;19.98;60.58;102018.13;5093403;28;20463;-85
2021/07/10 01:15:24;;;;;;;0.20;0.20;;;;;;;19.98;60.89;102018.13;5073294;28;20459;-84
2021/07/10 01:17:51;;;;;;;0.22;0.22;;;;;;;20.00;60.69;102018.91;5093540;28;20055;-85
2021/07/10 01:20:20;;;;;;;0.20;0.20;;;;;;;20.03;60.97;102024.19;5093314;28;20067;-84
2021/07/10 01:22:48;;;;;;;0.08;0.08;;;;;;;20.06;60.96;102015.09;5093348;28;20425;-84
2021/07/10 01:25:18;;;;;;;0.35;0.35;;;;;;;20.11;60.91;102015.78;5092916;28;20459;-84
2021/07/10 01:27:45;;;;;;;0.00;0.00;;;;;;;20.16;60.68;102011.97;5092090;28;20088;-84
2021/07/10 01:30:15;;;;;;;0.17;0.17;;;;;;;20.17;61.52;102015.53;5093471;28;20030;-84
2021/07/10 01:32:43;;;;;;;0.30;0.30;;;;;;;20.22;61.29;102008.13;5093350;28;20103;-84
2021/07/10 01:35:10;;;;;;;0.63;0.63;;;;;;;20.25;61.36;102002.66;5092832;28;20443;-84
2021/07/10 01:37:41;;;;;;;0.10;0.10;;;;;;;20.25;61.50;102008.03;5091835;28;20028;-83
2021/07/10 01:40:10;;;;;;;0.05;0.05;;;;;;;20.26;61.38;102009.78;5093575;28;20115;-83
2021/07/10 01:42:36;;;;;;;0.15;0.15;;;;;;;20.24;61.74;101990.13;5093081;28;20024;-85
2021/07/10 01:45:17;;;;;;;0.90;0.60;;;;;;;20.19;61.85;101997.53;5093442;28;20600;-83
2021/07/10 01:47:54;;;;;;;0.20;0.20;;;;;;;20.23;61.72;101988.38;5091594;28;20564;-83
2021/07/10 01:50:30;;;;;;;1.15;0.95;;;;;;;20.24;61.24;101987.44;5093278;28;20067;-84
2021/07/10 01:53:00;;;;;;;0.10;0.10;;;;;;;20.19;61.14;101981.38;5091684;28;20017;-82
2021/07/10 01:55:28;;;;;;;0.10;0.10;;;;;;;20.14;61.14;101978.88;5093419;28;20039;-83
2021/07/10 01:57:55;;;;;;;0.52;0.40;;;;;;;20.10;61.10;101979.06;5092377;28;20047;-83
2021/07/10 02:00:29;;;;;;;1.77;1.55;;;;;;;20.07;61.33;101982.75;5093165;28;20036;-83
2021/07/10 02:02:56;;;;;;;0.30;0.30;;;;;;;20.02;61.50;101974.88;5093068;28;20024;-84
2021/07/10 02:05:25;;;;;;;0.10;0.10;;;;;;;20.02;61.60;101969.50;5093006;28;20077;-83
2021/07/10 02:07:53;;;;;;;0.00;0.00;;;;;;;20.08;61.52;101968.38;5093229;28;20032;-83
2021/07/10 02:10:21;;;;;;;0.30;0.30;;;;;;;20.04;61.50;101962.25;5090552;28;20494;-83
2021/07/10 02:12:50;;;;;;;1.75;1.05;;;;;;;20.11;61.45;101967.38;5093434;28;20024;-83
2021/07/10 02:15:17;;;;;;;0.00;0.00;;;;;;;20.08;61.36;101972.88;5091142;28;20042;-84
2021/07/10 02:17:44;;;;;;;0.25;0.17;;;;;;;20.00;61.78;101973.19;5092907;28;20046;-83
2021/07/10 02:20:13;;;;;;;0.13;0.13;;;;;;;20.04;61.34;101972.13;5092677;28;20032;-83
2021/07/10 02:22:40;;;;;;;0.32;0.32;;;;;;;20.01;61.26;101975.84;5093049;28;20103;-83
2021/07/10 02:25:09;;;;;;;0.10;0.10;;;;;;;19.98;61.77;101961.63;5121020;22;20080;-83
2021/07/10 02:27:38;;;;;;;0.00;0.00;;;;;;;19.96;61.70;101964.41;5113939;28;20023;-87
2021/07/10 02:30:08;;;;;;;0.00;0.00;;;;;;;19.97;61.52;101966.13;5113059;28;20027;-91
2021/07/10 02:32:34;;;;;;;0.52;0.52;;;;;;;19.92;61.75;101962.75;5114124;28;20039;-85
2021/07/10 02:35:01;;;;;;;0.63;0.40;;;;;;;19.87;62.09;101965.63;5116559;28;20053;-82
2021/07/10 02:37:28;;;;;;;0.25;0.25;;;;;;;19.90;61.76;101967.34;5116108;28;20045;-90
2021/07/10 02:39:55;;;;;;;0.03;0.03;;;;;;;19.86;62.07;101961.22;5117315;28;20023;-84
2021/07/10 02:42:23;;;;;;;0.22;0.22;;;;;;;19.85;62.29;101956.75;5118193;28;20039;-84
2021/07/10 02:44:51;;;;;;;0.10;0.10;;;;;;;19.92;61.96;101952.00;5121414;28;20020;-86
2021/07/10 02:47:17;;;;;;;1.13;1.10;;;;;;;19.93;61.20;101943.00;5119465;28;20119;-86
2021/07/10 02:49:44;;;;;;;0.35;0.35;;;;;;;19.89;61.46;101944.06;5118374;28;20101;-83
2021/07/10 02:52:11;;;;;;;3.53;1.33;;;;;;;19.86;61.62;101937.00;5119354;28;20023;-82
2021/07/10 02:54:40;;;;;;;1.27;1.00;;;;;;;19.84;61.50;101938.00;5104830;28;20031;-84
2021/07/10 02:57:06;;;;;;;0.20;0.20;;;;;;;19.83;61.42;101941.63;5117632;28;20027;-87
2021/07/10 02:59:32;;;;;;;0.10;0.10;;;;;;;19.75;61.77;101943.72;5118695;28;20550;-82
2021/07/10 03:01:59;;;;;;;0.52;0.52;;;;;;;19.69;61.34;101926.91;5118608;28;20441;-89
2021/07/10 03:04:25;;;;;;;0.40;0.40;;;;;;;19.67;61.44;101931.47;5117112;28;20046;-83
2021/07/10 03:06:52;;;;;;;0.43;0.43;;;;;;;19.63;62.02;101929.84;5116469;28;20031;-84
2021/07/10 03:09:18;;;;;;;1.90;1.33;;;;;;;19.62;61.74;101928.09;5117486;28;20028;-88
2021/07/10 03:11:48;;;;;;;0.57;0.57;;;;;;;19.60;61.71;101923.72;5118451;28;20039;-86
2021/07/10 03:14:15;;;;;;;0.13;0.13;;;;;;;19.56;61.67;101923.84;5120370;28;20032;-83
2021/07/10 03:16:43;;;;;;;0.75;0.75;;;;;;;19.55;61.45;101924.78;5119726;28;20020;-91
2021/07/10 03:19:09;;;;;;;0.20;0.20;;;;;;;19.51;61.86;101925.81;5121017;28;20084;-90
2021/07/10 03:21:36;;;;;;;0.17;0.17;;;;;;;19.49;61.82;101924.13;5121722;28;20043;-93
2021/07/10 03:24:03;;;;;;;0.55;0.55;;;;;;;19.49;62.02;101921.44;5118660;28;20510;-91
2021/07/10 03:26:29;;;;;;;0.10;0.10;;;;;;;19.49;62.27;101916.97;5116819;28;20035;-86
2021/07/10 03:28:56;;;;;;;0.10;0.10;;;;;;;19.50;62.01;101917.84;5117011;28;20458;-92
2021/07/10 03:31:22;;;;;;;0.20;0.20;;;;;;;19.51;62.05;101915.06;5116462;28;20031;-91
2021/07/10 03:33:48;;;;;;;0.10;0.10;;;;;;;19.52;61.96;101910.59;5117092;28;20038;-92
2021/07/10 03:36:18;;;;;;;0.75;0.75;;;;;;;19.57;62.13;101905.91;5116875;28;20059;-90
2021/07/10 03:38:45;;;;;;;0.52;0.52;;;;;;;19.61;62.11;101910.19;5116550;28;20024;-91
2021/07/10 03:41:14;;;;;;;0.00;0.00;;;;;;;19.64;62.64;101906.50;5120656;28;20393;-91
2021/07/10 03:43:42;;;;;;;0.05;0.05;;;;;;;19.70;62.13;101908.94;5118404;28;20047;-93
2021/07/10 03:46:08;;;;;;;0.38;0.38;;;;;;;19.75;62.37;101919.53;5120672;28;20376;-92
2021/07/10 03:48:35;;;;;;;0.35;0.35;;;;;;;19.76;61.94;101907.81;5099764;28;20040;-92
2021/07/10 03:51:02;;;;;;;0.40;0.38;;;;;;;19.75;62.03;101904.28;5117111;28;20032;-92
2021/07/10 03:53:28;;;;;;;0.70;0.65;;;;;;;19.73;61.92;101909.69;5099682;28;20484;-92
2021/07/10 03:55:54;;;;;;;2.78;0.73;;;;;;;19.71;62.59;101908.91;5116933;28;20032;-82
2021/07/10 03:58:21;;;;;;;0.10;0.10;;;;;;;19.77;61.96;101906.91;5135420;28;20028;-89
2021/07/10 04:00:47;;;;;;;0.00;0.00;;;;;;;19.79;62.11;101908.56;5122700;28;20477;-89
2021/07/10 04:03:13;;;;;;;0.10;0.10;;;;;;;19.83;62.16;101906.66;5100010;28;20488;-91
2021/07/10 04:05:40;;;;;;;0.68;0.68;;;;;;;19.86;61.89;101903.84;5118060;28;20028;-90
2021/07/10 04:08:06;;;;;;;0.00;0.00;;;;;;;19.88;61.72;101901.97;5117699;28;20039;-90
2021/07/10 04:10:32;;;;;;;1.15;1.15;;;;;;;19.89;61.76;101903.72;5115478;28;20421;-89
2021/07/10 04:12:58;;;;;;;0.20;0.20;;;;;;;19.89;61.57;101901.03;5117892;28;20092;-92
2021/07/10 04:15:26;;;;;;;0.50;0.50;;;;;;;19.88;61.47;101901.97;5118013;28;20088;-84
2021/07/10 04:17:52;;;;;;;0.00;0.00;;;;;;;19.89;61.46;101898.34;5125342;28;20513;-90
2021/07/10 04:20:20;;;;;;;2.05;1.65;;;;;;;19.87;61.71;101894.84;5117020;28;20042;-92
2021/07/10 04:22:47;;;;;;;0.35;0.35;;;;;;;19.86;61.50;101898.47;5117295;28;20050;-92
2021/07/10 04:25:17;;;;;;;0.17;0.17;;;;;;;19.88;61.40;101899.28;5116917;28;20031;-90
2021/07/10 04:27:45;;;;;;;0.20;0.20;;;;;;;19.90;61.71;101910.84;5119784;28;20035;-91
2021/07/10 04:30:14;;;;;;;0.20;0.20;;;;;;;19.94;61.75;101906.19;5118845;28;20084;-92
2021/07/10 04:32:40;;;;;;;0.00;0.00;;;;;;;19.93;62.45;101905.34;5120955;27;20088;-91
2021/07/10 04:35:07;;;;;;;0.47;0.47;;;;;;;20.03;62.18;101908.50;5117864;28;20036;-90
2021/07/10 04:37:34;;;;;;;0.00;0.00;;;;;;;20.10;61.76;101898.34;5118883;28;20444;-82
2021/07/10 04:40:00;;;;;;;0.10;0.10;;;;;;;20.16;62.09;101900.78;5117967;28;20102;-84
2021/07/10 04:42:26;;;;;;;0.10;0.10;;;;;;;20.26;61.71;101906.63;5116930;28;20419;-83
2021/07/10 04:44:54;;;;;;;0.20;0.20;;;;;;;20.30;62.02;101889.41;5115559;28;20133;-83
2021/07/10 04:47:22;;;;;;;0.10;0.10;;;;;;;20.41;61.83;101894.31;5116782;28;20031;-83
2021/07/10 04:49:48;;;;;;;0.03;0.03;;;;;;;20.41;61.83;101895.19;5117180;28;20023;-84
2021/07/10 04:52:15;;;;;;;0.25;0.25;;;;;;;20.47;61.47;101888.66;5116681;28;20053;-84
2021/07/10 04:54:41;;;;;;;1.00;0.60;;;;;;;20.50;61.58;101893.91;5116195;28;20036;-84
2021/07/10 04:57:07;;;;;;;0.13;0.13;;;;;;;20.57;61.54;101883.72;5113781;28;20034;-86
2021/07/10 04:59:33;;;;;;;1.80;1.25;;;;;;;20.60;61.61;101888.97;5115561;28;20028;-83
2021/07/10 05:02:01;;;;;;;0.63;0.63;;;;;;;20.64;61.32;101896.84;5114591;28;20390;-89
2021/07/10 05:04:28;;;;;;;0.68;0.55;;;;;;;20.69;61.32;101889.41;5115159;28;20015;-84
2021/07/10 05:06:54;;;;;;;0.65;0.60;;;;;;;20.77;61.23;101897.19;5115178;28;20027;-85
2021/07/10 05:09:20;;;;;;;2.58;0.93;;;;;;;20.79;61.85;101889.03;5115295;28;20494;-84
2021/07/10 05:11:47;;;;;;;1.08;1.05;;;;;;;20.85;61.52;101889.63;5114922;28;20070;-92
2021/07/10 05:14:14;;;;;;;0.43;0.43;;;;;;;20.85;61.25;101888.75;5115834;28;20110;-83
2021/07/10 05:16:40;;;;;;;0.28;0.28;;;;;;;20.90;60.57;101886.72;5115116;28;20028;-83
2021/07/10 05:19:08;;;;;;;0.43;0.43;;;;;;;20.93;60.68;101891.94;5114843;28;20046;-83
2021/07/10 05:21:35;;;;;;;0.55;0.55;;;;;;;21.00;60.46;101893.41;5114781;28;20024;-83
2021/07/10 05:24:02;;;;;;;0.65;0.65;;;;;;;21.01;60.93;101897.84;5113598;28;20368;-87
2021/07/10 05:26:31;;;;;;;0.55;0.55;;;;;;;21.05;60.61;101892.31;5114442;28;20023;-84
2021/07/10 05:29:03;;;;;;;0.85;0.57;;;;;;;21.11;60.46;101901.00;5113826;28;20027;-89
2021/07/10 05:31:30;;;;;;;2.15;1.95;;;;;;;21.20;60.28;101899.66;5115006;28;20043;-86
2021/07/10 05:33:57;;;;;;;0.30;0.30;;;;;;;21.22;60.29;101892.41;5115534;28;20061;-91
2021/07/10 05:36:24;;;;;;;0.52;0.52;;;;;;;21.18;60.65;101890.78;5105243;28;20062;-90
2021/07/10 05:38:50;;;;;;;0.95;0.93;;;;;;;21.24;60.44;101893.19;5099620;28;20027;-88
2021/07/10 05:41:16;;;;;;;0.35;0.35;;;;;;;21.28;60.08;101889.41;5107828;28;20034;-89
2021/07/10 05:43:42;;;;;;;2.45;1.00;;;;;;;21.32;60.62;101893.69;5114007;28;20483;-86
2021/07/10 05:46:10;;;;;;;2.55;1.25;;;;;;;21.32;60.13;101892.78;5114211;28;20370;-88
2021/07/10 05:48:36;;;;;;;12.82;1.13;;;;;;;21.41;60.19;101891.47;5113748;28;20059;-92
2021/07/10 05:51:02;;;;;;;0.20;0.20;;;;;;;21.45;59.93;101887.69;5113815;28;20552;-88
2021/07/10 05:53:29;;;;;;;0.20;0.20;;;;;;;21.51;59.60;101898.19;5114833;28;20038;-91
2021/07/10 05:55:55;;;;;;;0.30;0.30;;;;;;;21.54;59.21;101892.63;5115123;28;20461;-92
2021/07/10 05:58:21;;;;;;;0.82;0.82;;;;;;;21.67;59.04;101892.03;5115540;28;20087;-92
2021/07/10 06:00:47;;;;;;;0.32;0.32;;;;;;;21.72;58.99;101890.88;5115964;28;20055;-92
2021/07/10 06:03:14;;;;;;;0.65;0.65;;;;;;;21.77;58.98;101882.53;5116118;28;20016;-92
2021/07/10 06:05:40;;;;;;;0.10;0.10;;;;;;;21.74;59.12;101885.41;5116044;28;20035;-93
2021/07/10 06:08:06;;;;;;;1.95;1.85;;;;;;;21.80;58.97;101887.78;5111749;28;20051;-93
2021/07/10 06:10:33;;;;;;;0.10;0.10;;;;;;;21.75;58.70;101889.84;5115405;28;20023;-93
2021/07/10 06:12:59;;;;;;;1.02;0.95;;;;;;;21.82;58.31;101883.19;5109677;28;20039;-93
2021/07/10 06:15:25;;;;;;;0.20;0.20;;;;;;;21.90;58.24;101886.34;5110483;28;20023;-89
2021/07/10 06:17:53;;;;;;;0.10;0.10;;;;;;;21.89;58.32;101887.28;5097665;28;20032;-92
2021/07/10 06:20:22;;;;;;;0.63;0.63;;;;;;;22.02;57.77;101884.84;5099100;28;20097;-93
2021/07/10 06:22:55;;;;;;;0.47;0.47;;;;;;;22.09;57.53;101880.00;5100347;28;20089;-93
2021/07/10 06:25:21;;;;;;;3.83;1.75;;;;;;;22.12;57.97;101877.16;5108110;28;20554;-84
2021/07/10 06:27:50;;;;;;;0.40;0.40;;;;;;;22.08;57.15;101889.94;5105533;27;20047;-90
2021/07/10 06:30:19;;;;;;;3.70;0.70;;;;;;;22.09;57.71;101890.78;5107622;28;20043;-90
2021/07/10 06:32:45;;;;;;;0.88;0.88;;;;;;;22.18;57.46;101886.75;5108368;28;20035;-92
2021/07/10 06:35:12;;;;;;;0.63;0.63;;;;;;;22.27;57.29;101891.69;5117113;28;20051;-85
2021/07/10 06:37:41;;;;;;;0.65;0.60;;;;;;;22.24;56.12;101881.91;5110303;28;20067;-84
2021/07/10 06:40:10;;;;;;;0.22;0.22;;;;;;;22.35;56.35;101878.63;5104720;28;20031;-84
2021/07/10 06:42:39;;;;;;;3.50;0.73;;;;;;;22.40;56.31;101878.41;5107610;28;20035;-89
2021/07/10 06:45:09;;;;;;;0.70;0.52;;;;;;;22.47;55.56;101874.44;5108702;28;20481;-93
2021/07/10 06:47:36;;;;;;;0.52;0.52;;;;;;;22.50;55.49;101874.25;5107428;28;20352;-92
2021/07/10 06:50:05;;;;;;;0.38;0.38;;;;;;;22.66;55.82;101876.13;5112863;28;20024;-93
2021/07/10 06:52:34;;;;;;;1.38;1.13;;;;;;;22.73;54.91;101869.41;5108109;28;20114;-93
2021/07/10 06:55:01;;;;;;;0.57;0.57;;;;;;;22.80;55.32;101873.53;5170936;22;20139;-81
2021/07/10 06:57:27;;;;;;;0.40;0.35;;;;;;;22.84;55.02;101869.72;5135635;27;20023;-81
2021/07/10 06:59:53;;;;;;;0.40;0.40;;;;;;;22.92;55.76;101867.44;5135919;27;20072;-81
2021/07/10 07:02:19;;;;;;;0.35;0.35;;;;;;;23.06;55.16;101863.97;5135977;27;20055;-81
2021/07/10 07:04:45;;;;;;;0.10;0.10;;;;;;;23.01;54.56;101866.06;5126921;27;20032;-80
2021/07/10 07:07:12;;;;;;;1.75;0.95;;;;;;;23.10;54.71;101870.97;5115975;28;20031;-81
2021/07/10 07:09:38;;;;;;;2.72;1.38;;;;;;;23.08;54.92;101882.81;5116043;28;20122;-81
2021/07/10 07:12:05;;;;;;;0.45;0.40;;;;;;;23.07;53.99;101872.97;5116074;28;20019;-81
2021/07/10 07:14:31;;;;;;;4.10;0.65;;;;;;;23.02;55.31;101872.34;5116016;28;20084;-81
2021/07/10 07:16:58;;;;;;;0.10;0.10;;;;;;;23.02;54.24;101877.75;5116167;28;20066;-80
2021/07/10 07:19:29;;;;;;;0.00;0.00;;;;;;;22.97;54.65;101869.91;5115959;28;20111;-82
2021/07/10 07:21:56;;;;;;;0.88;0.65;;;;;;;22.98;55.12;101871.66;5115152;28;20070;-81
2021/07/10 07:24:23;;;;;;;0.57;0.57;;;;;;;23.03;54.15;101874.06;5115960;28;20084;-81
2021/07/10 07:26:49;;;;;;;1.25;1.15;;;;;;;22.94;54.43;101870.06;5115505;28;20576;-84
2021/07/10 07:29:16;;;;;;;1.20;1.10;;;;;;;23.01;54.38;101868.75;5115701;28;20020;-82
2021/07/10 07:31:44;;;;;;;0.45;0.45;;;;;;;22.97;54.07;101863.59;5116243;28;20034;-82
2021/07/10 07:34:11;;;;;;;0.47;0.47;;;;;;;23.15;54.54;101867.97;5115820;28;20107;-82
2021/07/10 07:36:38;;;;;;;1.17;0.50;;;;;;;23.30;54.02;101859.97;5115865;28;20043;-82
2021/07/10 07:39:06;;;;;;;0.20;0.20;;;;;;;23.39;54.00;101854.03;5112648;28;20038;-83
2021/07/10 07:41:35;;;;;;;0.10;0.10;;;;;;;23.48;53.38;101852.63;5097574;28;20047;-82
2021/07/10 07:44:01;;;;;;;0.20;0.20;;;;;;;23.55;52.76;101854.00;5115466;28;20019;-82
2021/07/10 07:46:28;;;;;;;0.70;0.70;;;;;;;23.63;53.79;101864.38;5106353;28;20042;-82
2021/07/10 07:48:54;;;;;;;1.60;0.80;;;;;;;23.72;53.37;101862.00;5115574;28;20031;-82
2021/07/10 07:51:20;;;;;;;18.50;0.70;;;;;;;23.80;52.70;101856.13;5115386;28;20493;-83
2021/07/10 07:53:48;;;;;;;0.50;0.50;;;;;;;23.88;51.99;101855.66;5099108;28;20032;-82
2021/07/10 07:56:15;;;;;;;0.40;0.40;;;;;;;23.90;50.84;101860.03;5114867;28;20036;-82
2021/07/10 07:58:41;;;;;;;1.50;1.33;;;;;;;23.98;51.80;101862.28;5114690;28;20127;-82
2021/07/10 08:01:09;;;;;;;1.50;1.02;;;;;;;24.09;52.14;101848.13;5097490;28;20035;-83
2021/07/10 08:03:35;;;;;;;3.17;1.27;;;;;;;24.20;51.64;101851.03;5110336;28;20028;-82
2021/07/10 08:06:02;;;;;;;0.55;0.55;;;;;;;24.28;50.82;101845.13;5109640;28;20031;-83
2021/07/10 08:08:29;;;;;;;4.72;0.88;;;;;;;24.43;50.94;101851.41;5115236;28;20043;-83
2021/07/10 08:10:56;;;;;;;2.45;2.15;;;;;;;24.39;50.71;101842.63;5114990;28;20056;-82
2021/07/10 08:13:22;;;;;;;1.15;1.10;;;;;;;24.36;49.79;101836.50;5099073;28;20031;-82
2021/07/10 08:15:48;;;;;;;1.55;0.65;;;;;;;24.20;50.05;101829.38;5114261;28;20466;-81
2021/07/10 08:18:14;;;;;;;0.57;0.57;;;;;;;24.46;50.36;101840.41;5114007;28;20027;-82
2021/07/10 08:20:41;;;;;;;1.55;1.45;;;;;;;24.20;49.70;101834.78;5092848;28;20525;-82
2021/07/10 08:23:07;;;;;;;1.83;1.73;;;;;;;24.37;50.26;101839.16;5111251;28;20121;-82
2021/07/10 08:25:34;;;;;;;0.65;0.65;;;;;;;24.14;50.17;101835.16;5074512;22;20038;-86
2021/07/10 08:28:00;;;;;;;1.80;1.63;;;;;;;24.30;51.51;101839.59;5022342;28;20057;-84
2021/07/10 08:30:27;;;;;;;0.57;0.57;;;;;;;24.54;49.93;101832.66;5028112;28;20032;-84
2021/07/10 08:32:54;;;;;;;0.57;0.57;;;;;;;24.60;49.51;101827.81;5022483;28;20037;-85
2021/07/10 08:35:21;;;;;;;0.73;0.73;;;;;;;24.52;47.73;101831.00;5031024;28;20029;-85
2021/07/10 08:37:48;;;;;;;1.95;1.80;;;;;;;24.66;48.59;101825.63;5028381;28;20121;-89
2021/07/10 08:40:16;;;;;;;0.28;0.28;;;;;;;24.83;49.00;101821.78;5026981;28;20045;-91
2021/07/10 08:42:44;;;;;;;0.45;0.45;;;;;;;24.93;49.20;101821.22;5023924;28;20061;-83
2021/07/10 08:45:13;;;;;;;0.45;0.45;;;;;;;25.04;49.18;101824.94;5020900;28;20066;-83
2021/07/10 08:47:42;;;;;;;0.63;0.63;;;;;;;25.14;48.38;101829.78;5024431;28;20025;-91
2021/07/10 08:50:14;;;;;;;1.30;1.30;;;;;;;25.30;48.21;101829.63;5021979;28;20030;-91
2021/07/10 08:52:41;;;;;;;0.73;0.73;;;;;;;25.31;46.30;101825.91;5020081;28;20022;-87
2021/07/10 08:55:10;;;;;;;1.17;1.17;;;;;;;25.24;48.61;101827.31;5023455;28;20022;-85
2021/07/10 08:57:37;;;;;;;0.82;0.82;;;;;;;25.44;47.24;101821.44;5021707;28;20036;-90
2021/07/10 09:00:12;;;;;;;0.28;0.28;;;;;;;25.50;47.00;101815.59;5024135;28;20030;-91
2021/07/10 09:02:46;;;;;;;1.48;1.38;;;;;;;25.56;47.20;101814.31;5031261;28;20491;-90
2021/07/10 09:05:12;;;;;;;0.47;0.47;;;;;;;25.52;45.82;101807.34;5021976;28;20028;-90
2021/07/10 09:08:19;;;;;;;0.52;0.52;;;;;;;25.67;46.49;101810.84;5019969;28;20444;-84
2021/07/10 09:13:43;;;;;;;0.70;0.70;;;;;;;25.84;46.62;101809.69;5074330;28;20417;-86
2021/07/10 09:16:15;;;;;;;1.45;1.35;;;;;;;25.86;45.71;101804.16;5043997;28;20025;-89
2021/07/10 09:18:44;;;;;;;0.47;0.47;;;;;;;25.93;45.32;101805.47;5030295;28;20495;-89
2021/07/10 09:21:14;;;;;;;0.10;0.10;;;;;;;26.13;45.51;101795.94;5036578;28;20021;-93
2021/07/10 09:23:44;;;;;;;0.93;0.85;;;;;;;26.34;44.31;101790.81;5037243;28;20025;-91
2021/07/10 09:26:18;;;;;;;3.40;1.35;;;;;;;26.53;44.87;101784.06;5026363;28;20508;-90
2021/07/10 09:29:00;;;;;;;0.28;0.28;;;;;;;26.57;45.94;101788.31;5030537;28;20444;-86
2021/07/10 09:31:32;;;;;;;1.00;0.65;;;;;;;26.60;45.74;101788.06;5037183;28;20029;-90
2021/07/10 09:36:52;;;;;;;0.45;0.45;;;;;;;26.43;45.46;101784.72;5078417;27;20429;-86
2021/07/10 09:39:19;;;;;;;0.30;0.30;;;;;;;26.42;45.50;101785.72;5064435;28;20406;-85
2021/07/10 09:41:46;;;;;;;1.73;1.10;;;;;;;26.30;45.98;101789.31;5065944;28;20043;-86
2021/07/10 09:44:16;;;;;;;1.40;1.40;;;;;;;26.33;45.16;101780.91;5067177;28;20064;-86
2021/07/10 09:46:44;;;;;;;1.20;0.82;;;;;;;26.50;45.45;101776.13;5057061;28;20121;-90
2021/07/10 09:49:34;;;;;;;0.52;0.52;;;;;;;26.58;47.17;101776.41;5055343;28;20025;-91
2021/07/10 09:52:05;;;;;;;0.73;0.73;;;;;;;26.62;46.43;101767.94;5060678;28;20377;-90
2021/07/10 09:54:34;;;;;;;0.57;0.57;;;;;;;26.70;45.81;101771.94;5056426;28;20035;-88
2021/07/10 09:57:05;;;;;;;1.00;1.00;;;;;;;26.83;45.65;101771.91;5054825;28;20384;-84
2021/07/10 09:59:36;;;;;;;0.70;0.70;;;;;;;26.86;44.31;101766.28;5057139;28;20369;-89
2021/07/10 10:02:10;;;;;;;0.25;0.25;;;;;;;26.88;43.43;101761.56;5058530;28;20055;-89
2021/07/10 10:04:36;;;;;;;1.17;1.15;;;;;;;26.82;42.51;101762.03;5056362;28;20057;-89
2021/07/10 10:07:11;;;;;;;1.50;1.40;;;;;;;26.86;44.43;101758.97;5063808;28;20021;-89
2021/07/10 10:09:38;;;;;;;0.35;0.35;;;;;;;26.79;43.09;101761.28;5059201;28;20112;-88
2021/07/10 10:14:48;;;;;;;0.50;0.50;;;;;;;26.94;43.41;101763.81;4958603;27;3483328;-85
2021/07/10 10:17:17;;;;;;;1.20;1.15;;;;;;;26.98;42.99;101759.91;5055758;28;20128;-89
2021/07/10 10:19:50;;;;;;;1.17;1.08;;;;;;;27.12;43.43;101756.16;5075416;28;20029;-87
2021/07/10 10:22:18;;;;;;;0.38;0.38;;;;;;;27.08;44.17;101750.06;5069545;28;20040;-85
2021/07/10 10:24:47;;;;;;;4.90;1.33;;;;;;;27.06;44.41;101762.91;5051815;28;20040;-85
2021/07/10 10:27:15;;;;;;;0.80;0.80;;;;;;;27.19;42.72;101751.09;5074032;28;20020;-84
2021/07/10 10:29:42;;;;;;;0.25;0.25;;;;;;;27.15;43.70;101755.91;5074506;28;20054;-85
2021/07/10 10:32:09;;;;;;;0.40;0.40;;;;;;;27.31;43.14;101752.88;5072113;28;20043;-88
2021/07/10 10:34:39;;;;;;;0.65;0.65;;;;;;;27.36;41.29;101742.50;5071567;28;20040;-86
2021/07/10 10:37:08;;;;;;;0.22;0.22;;;;;;;27.50;41.81;101746.03;5075857;28;20087;-85
2021/07/10 10:39:38;;;;;;;0.47;0.45;;;;;;;27.63;43.97;101749.53;5076993;28;20044;-90
2021/07/10 10:42:09;;;;;;;1.38;1.27;;;;;;;27.83;42.82;101742.50;5073257;28;20044;-86
2021/07/10 10:44:40;;;;;;;0.25;0.25;;;;;;;27.87;40.97;101737.69;5073182;28;20937;-87
2021/07/10 10:47:09;;;;;;;0.88;0.77;;;;;;;28.09;41.75;101728.72;5068895;28;20119;-86
2021/07/10 10:49:46;;;;;;;1.17;0.68;;;;;;;28.14;39.44;101731.03;5077311;28;20032;-89
2021/07/10 10:52:34;;;;;;;2.35;0.47;;;;;;;28.02;40.14;101733.72;5082170;28;20472;-89
2021/07/10 10:57:54;;;;;;;1.75;1.17;;;;;;;27.98;39.60;101721.34;5144179;27;20404;-89
2021/07/10 11:00:32;;;;;;;0.77;0.77;;;;;;;27.99;38.11;101717.66;5094700;28;20048;-90
2021/07/10 11:03:02;;;;;;;0.22;0.22;;;;;;;27.99;39.72;101714.94;5088296;28;20020;-87
2021/07/10 11:08:26;;;;;;;1.17;0.43;;;;;;;28.15;40.21;101708.25;5101694;27;20389;-91
2021/07/10 11:16:20;;;;;;;0.10;0.10;;;;;;;28.54;39.07;101703.25;5112480;27;20411;-91
2021/07/10 11:29:39;;;;;;;0.73;0.73;;;;;;;28.52;36.87;101692.47;5091213;27;20825;-84
2021/07/10 11:34:56;;;;;;;0.10;0.10;;;;;;;28.57;38.71;101686.63;5124216;27;20797;-84
2021/07/10 11:37:25;;;;;;;4.20;1.17;;;;;;;28.46;38.73;101679.34;5111662;28;20031;-85
2021/07/10 11:42:42;;;;;;;0.40;0.40;;;;;;;28.04;37.68;101677.31;5071592;28;20881;-84
2021/07/10 11:48:15;;;;;;;0.08;0.08;;;;;;;27.70;40.69;101682.75;5007547;28;20395;-83
2021/07/10 11:50:42;;;;;;;0.38;0.38;;;;;;;27.80;39.39;101682.00;5007892;28;20131;-83
2021/07/10 11:53:11;;;;;;;0.05;0.05;;;;;;;28.02;38.94;101670.22;5006611;28;20033;-83
2021/07/10 11:55:41;;;;;;;0.00;0.00;;;;;;;28.23;38.76;101675.81;5007757;28;20042;-83
2021/07/10 11:58:09;;;;;;;0.40;0.30;;;;;;;28.44;37.72;101672.28;5007713;28;20037;-83
2021/07/10 12:00:36;;;;;;;1.65;0.45;;;;;;;28.79;38.02;101668.50;5007657;28;20031;-84
2021/07/10 12:03:03;;;;;;;0.70;0.55;;;;;;;28.86;36.32;101672.44;5007588;28;20465;-84
2021/07/10 12:05:33;;;;;;;0.63;0.52;;;;;;;28.83;36.89;101678.16;5032022;27;20030;-86
2021/07/10 12:08:00;;;;;;;0.20;0.20;;;;;;;28.85;37.55;101670.72;5016027;27;20084;-86